createdAt,value
2022-10-14T00:01:13.528Z,37.90
2022-10-14T00:03:41.020Z,27.87
2022-10-14T00:06:13.202Z,29.00
2022-10-14T00:08:40.764Z,28.67
2022-10-14T00:11:22.043Z,29.90
2022-10-14T00:13:49.503Z,29.85
2022-10-14T00:16:22.145Z,31.17
2022-10-14T00:18:49.677Z,27.42
2022-10-14T00:21:16.859Z,30.90
2022-10-14T00:23:44.509Z,29.98
2022-10-14T00:26:32.876Z,31.20
2022-10-14T00:29:00.539Z,35.67
2022-10-14T00:31:31.621Z,29.00
2022-10-14T00:33:58.899Z,30.27
2022-10-14T00:36:26.346Z,28.08
2022-10-14T00:38:54.226Z,31.08
2022-10-14T00:41:26.379Z,28.63
2022-10-14T00:44:17.025Z,28.77
2022-10-14T00:46:45.879Z,28.55
2022-10-14T00:49:31.739Z,27.65
2022-10-14T00:52:02.747Z,28.13
2022-10-14T00:54:37.639Z,29.47
2022-10-14T00:57:05.387Z,28.85
2022-10-14T00:59:33.024Z,27.30
2022-10-14T01:02:00.313Z,27.42
2022-10-14T01:04:27.694Z,30.90
2022-10-14T01:07:01.340Z,27.47
2022-10-14T01:09:35.999Z,32.50
2022-10-14T01:12:29.202Z,31.50
2022-10-14T01:15:00.208Z,26.92
2022-10-14T01:17:34.349Z,27.08
2022-10-14T01:20:13.737Z,25.50
2022-10-14T01:23:09.414Z,31.83
2022-10-14T01:26:06.757Z,27.73
2022-10-14T01:28:45.761Z,28.70
2022-10-14T01:31:16.956Z,29.83
2022-10-14T01:33:45.079Z,30.23
2022-10-14T01:36:22.015Z,30.08
2022-10-14T01:39:03.053Z,29.02
2022-10-14T01:41:36.096Z,29.35
2022-10-14T01:44:05.826Z,30.20
2022-10-14T01:46:33.074Z,29.20
2022-10-14T01:49:07.431Z,29.27
2022-10-14T01:51:51.237Z,33.70
2022-10-14T01:54:21.064Z,29.02
2022-10-14T01:56:48.376Z,28.20
2022-10-14T01:59:16.507Z,35.23
2022-10-14T02:01:43.877Z,30.63
2022-10-14T02:04:16.460Z,28.63
2022-10-14T02:07:12.696Z,26.50
2022-10-14T02:10:01.516Z,27.30
2022-10-14T02:12:31.832Z,30.40
2022-10-14T02:15:28.721Z,29.55
2022-10-14T02:17:59.000Z,29.70
2022-10-14T02:20:31.927Z,29.55
2022-10-14T02:23:12.118Z,32.25
2022-10-14T02:25:40.424Z,29.60
2022-10-14T02:28:09.274Z,32.10
2022-10-14T02:30:39.475Z,29.30
2022-10-14T02:33:07.605Z,30.10
2022-10-14T02:35:34.925Z,28.83
2022-10-14T02:38:05.074Z,28.57
2022-10-14T02:40:40.610Z,31.98
2022-10-14T02:43:10.733Z,32.45
2022-10-14T02:45:38.977Z,31.40
2022-10-14T02:48:06.534Z,32.20
2022-10-14T02:50:33.901Z,30.40
2022-10-14T02:53:01.101Z,31.20
2022-10-14T02:55:28.351Z,30.98
2022-10-14T02:57:55.584Z,34.17
2022-10-14T03:00:22.917Z,30.38
2022-10-14T03:02:50.187Z,34.10
2022-10-14T03:05:19.651Z,30.63
2022-10-14T03:07:47.161Z,38.53
2022-10-14T03:10:17.909Z,32.67
2022-10-14T03:12:45.293Z,29.80
2022-10-14T03:15:21.313Z,31.67
2022-10-14T03:17:50.090Z,30.80
2022-10-14T03:20:21.403Z,32.88
2022-10-14T03:22:52.603Z,32.25
2022-10-14T03:25:20.009Z,30.55
2022-10-14T03:27:56.586Z,34.13
2022-10-14T03:30:35.462Z,32.00
2022-10-14T03:33:13.228Z,31.35
2022-10-14T03:35:47.437Z,34.80
2022-10-14T03:38:18.839Z,30.42
2022-10-14T03:40:47.543Z,31.63
2022-10-14T03:43:15.245Z,30.83
2022-10-14T03:45:54.873Z,29.98
2022-10-14T03:48:24.646Z,33.95
2022-10-14T03:50:56.311Z,31.90
2022-10-14T03:53:24.944Z,28.43
2022-10-14T03:55:52.542Z,38.05
2022-10-14T03:58:20.531Z,33.85
2022-10-14T04:00:57.214Z,30.05
2022-10-14T04:03:53.430Z,34.00
2022-10-14T04:06:21.006Z,26.70
2022-10-14T04:08:50.950Z,29.73
2022-10-14T04:11:27.450Z,29.70
2022-10-14T04:14:00.538Z,29.33
2022-10-14T04:16:30.007Z,28.25
2022-10-14T04:19:04.261Z,34.10
2022-10-14T04:21:32.024Z,37.17
2022-10-14T04:23:59.305Z,33.90
2022-10-14T04:26:52.676Z,32.40
2022-10-14T04:29:38.363Z,37.03
2022-10-14T04:32:12.892Z,33.03
2022-10-14T04:34:40.317Z,34.95
2022-10-14T04:37:09.055Z,31.98
2022-10-14T04:40:02.480Z,31.85
2022-10-14T04:42:31.640Z,33.00
2022-10-14T04:45:02.754Z,32.13
2022-10-14T04:47:48.345Z,31.67
2022-10-14T04:50:18.969Z,34.25
2022-10-14T04:53:09.439Z,31.38
2022-10-14T04:55:46.959Z,31.88
2022-10-14T04:58:14.357Z,30.43
2022-10-14T05:00:43.776Z,30.45
2022-10-14T05:03:24.794Z,28.75
2022-10-14T05:05:52.702Z,29.98
2022-10-14T05:08:20.618Z,30.27
2022-10-14T05:10:54.097Z,30.70
2022-10-14T05:13:35.864Z,29.17
2022-10-14T05:16:08.067Z,27.23
2022-10-14T05:18:37.188Z,32.55
2022-10-14T05:21:19.256Z,37.95
2022-10-14T05:24:14.509Z,37.87
2022-10-14T05:26:47.895Z,39.13
2022-10-14T05:29:17.177Z,42.20
2022-10-14T05:31:44.952Z,38.88
2022-10-14T05:34:26.829Z,37.53
2022-10-14T05:36:56.594Z,36.50
2022-10-14T05:39:24.327Z,38.53
2022-10-14T05:41:53.192Z,40.45
2022-10-14T05:44:25.245Z,37.47
2022-10-14T05:46:54.216Z,35.53
2022-10-14T05:49:22.150Z,36.87
2022-10-14T05:51:49.536Z,37.80
2022-10-14T05:54:22.364Z,36.83
2022-10-14T05:56:52.841Z,35.65
2022-10-14T05:59:20.863Z,39.33
2022-10-14T06:01:48.558Z,32.07
2022-10-14T06:04:20.136Z,40.33
2022-10-14T06:06:52.355Z,44.15
2022-10-14T06:09:30.591Z,37.10
2022-10-14T06:11:58.637Z,37.42
2022-10-14T06:14:26.313Z,37.22
2022-10-14T06:17:39.915Z,40.00
2022-10-14T06:20:11.396Z,38.95
2022-10-14T06:22:39.548Z,37.20
2022-10-14T06:25:08.917Z,37.55
2022-10-14T06:27:36.587Z,36.80
2022-10-14T06:30:04.793Z,37.17
2022-10-14T06:32:32.869Z,38.47
2022-10-14T06:35:00.939Z,40.45
2022-10-14T06:37:30.040Z,44.88
2022-10-14T06:39:57.894Z,42.78
2022-10-14T06:42:28.086Z,41.97
2022-10-14T06:44:57.109Z,40.63
2022-10-14T06:47:24.979Z,39.95
2022-10-14T06:49:52.320Z,41.13
2022-10-14T06:52:21.826Z,39.83
2022-10-14T06:54:50.149Z,40.97
2022-10-14T06:57:20.564Z,36.80
2022-10-14T06:59:51.320Z,33.22
2022-10-14T07:02:22.348Z,33.17
2022-10-14T07:04:50.060Z,36.33
2022-10-14T07:07:18.858Z,31.73
2022-10-14T07:09:47.346Z,33.13
2022-10-14T07:12:17.837Z,30.35
2022-10-14T07:14:45.832Z,34.30
2022-10-14T07:17:19.981Z,37.35
2022-10-14T07:19:48.352Z,36.73
2022-10-14T07:22:17.830Z,40.05
2022-10-14T07:24:46.332Z,37.03
2022-10-14T07:27:16.641Z,33.95
2022-10-14T07:29:44.206Z,36.08
2022-10-14T07:32:11.596Z,33.63
2022-10-14T07:34:39.048Z,39.40
2022-10-14T07:37:06.408Z,43.55
2022-10-14T07:39:34.085Z,40.90
2022-10-14T07:42:01.822Z,41.13
2022-10-14T07:44:29.666Z,45.73
2022-10-14T07:46:58.860Z,44.72
2022-10-14T07:49:26.512Z,48.40
2022-10-14T07:51:54.461Z,48.47
2022-10-14T07:54:24.175Z,49.28
2022-10-14T07:56:53.543Z,46.67
2022-10-14T07:59:21.290Z,46.05
2022-10-14T08:01:49.853Z,50.85
2022-10-14T08:04:18.019Z,49.72
2022-10-14T08:06:49.024Z,49.08
2022-10-14T08:09:35.017Z,50.23
2022-10-14T08:12:03.584Z,45.65
2022-10-14T08:14:32.982Z,53.13
2022-10-14T08:17:02.802Z,47.88
2022-10-14T08:19:53.838Z,45.90
2022-10-14T08:33:52.251Z,48.57
2022-10-14T08:36:20.735Z,48.45
2022-10-14T08:38:55.942Z,48.72
2022-10-14T08:41:51.473Z,54.92
2022-10-14T08:44:34.042Z,47.15
2022-10-14T08:47:04.763Z,54.27
2022-10-14T08:50:01.656Z,47.30
2022-10-14T08:52:43.398Z,44.75
2022-10-14T08:55:44.036Z,49.17
2022-10-14T08:58:20.698Z,45.35
2022-10-14T09:00:50.800Z,45.43
2022-10-14T09:03:24.183Z,44.00
2022-10-14T09:06:24.947Z,48.78
2022-10-14T09:08:59.492Z,49.15
2022-10-14T09:11:29.564Z,55.40
2022-10-14T09:14:23.194Z,53.93
2022-10-14T09:16:57.351Z,55.08
2022-10-14T09:20:05.462Z,48.47
2022-10-14T09:22:33.162Z,49.78
2022-10-14T09:25:01.445Z,49.47
2022-10-14T09:27:30.284Z,49.10
2022-10-14T09:30:00.202Z,56.27
2022-10-14T09:32:41.110Z,48.22
2022-10-14T09:35:32.584Z,58.00
2022-10-14T09:37:59.959Z,58.92
2022-10-14T09:40:32.097Z,54.92
2022-10-14T09:43:08.668Z,50.40
2022-10-14T09:46:04.027Z,56.42
2022-10-14T09:48:39.682Z,48.03
2022-10-14T09:51:23.877Z,54.67
2022-10-14T09:53:53.636Z,45.72
2022-10-14T09:56:39.014Z,53.87
2022-10-14T09:59:20.732Z,50.92
2022-10-14T10:02:02.138Z,53.35
2022-10-14T10:04:47.853Z,56.15
2022-10-14T10:07:34.925Z,53.45
2022-10-14T10:10:23.357Z,50.97
2022-10-14T10:13:13.412Z,48.38
2022-10-14T10:15:44.678Z,45.47
2022-10-14T10:18:19.735Z,48.17
2022-10-14T10:21:08.823Z,47.38
2022-10-14T10:23:37.078Z,40.40
2022-10-14T10:26:18.825Z,45.08
2022-10-14T10:28:50.270Z,43.80
2022-10-14T10:31:33.743Z,43.78
2022-10-14T10:34:28.570Z,44.13
2022-10-14T10:37:00.902Z,44.53
2022-10-14T10:39:54.006Z,49.08
2022-10-14T10:42:26.195Z,44.60
2022-10-14T10:45:06.746Z,45.03
2022-10-14T10:47:41.251Z,46.40
2022-10-14T10:50:38.167Z,44.53
2022-10-14T10:53:20.918Z,43.42
2022-10-14T10:56:13.690Z,43.20
2022-10-14T10:59:07.475Z,47.05
2022-10-14T11:01:55.214Z,41.75
2022-10-14T11:04:38.405Z,40.93
2022-10-14T11:08:05.882Z,44.33
2022-10-14T11:11:30.791Z,43.42
2022-10-14T11:14:13.575Z,42.78
2022-10-14T11:17:09.095Z,40.38
2022-10-14T11:20:22.855Z,40.90
2022-10-14T11:23:21.643Z,44.23
2022-10-14T11:26:21.411Z,47.65
2022-10-14T11:29:23.473Z,44.20
2022-10-14T11:31:54.968Z,46.25
2022-10-14T11:34:43.187Z,45.30
2022-10-14T11:37:29.175Z,44.37
2022-10-14T11:40:10.651Z,49.30
2022-10-14T11:43:11.101Z,49.20
2022-10-14T11:45:47.278Z,41.75
2022-10-14T11:48:24.069Z,42.08
2022-10-14T11:50:58.811Z,44.20
2022-10-14T11:53:48.521Z,48.42
2022-10-14T11:57:11.144Z,44.22
2022-10-14T12:00:05.535Z,44.50
2022-10-14T12:02:54.410Z,43.78
2022-10-14T12:05:53.339Z,43.10
2022-10-14T12:08:37.483Z,43.42
2022-10-14T12:11:28.456Z,47.55
2022-10-14T12:14:34.892Z,41.85
2022-10-14T12:17:05.674Z,47.63
2022-10-14T12:19:33.044Z,39.40
2022-10-14T12:22:09.524Z,45.63
2022-10-14T12:24:38.279Z,46.55
2022-10-14T12:27:06.696Z,43.85
2022-10-14T12:29:41.612Z,45.05
2022-10-14T12:32:20.374Z,43.27
2022-10-14T12:34:55.159Z,41.80
2022-10-14T12:37:31.634Z,40.35
2022-10-14T12:40:02.466Z,44.22
2022-10-14T12:42:30.937Z,45.30
2022-10-14T12:45:14.386Z,41.80
2022-10-14T12:47:41.831Z,41.17
2022-10-14T12:50:16.642Z,42.60
2022-10-14T12:52:48.416Z,41.47
2022-10-14T12:55:20.554Z,42.53
2022-10-14T12:58:02.431Z,39.23
2022-10-14T13:00:35.646Z,35.25
2022-10-14T13:03:04.174Z,32.67
2022-10-14T13:05:43.047Z,32.83
2022-10-14T13:08:12.133Z,37.15
2022-10-14T13:10:45.183Z,33.63
2022-10-14T13:13:42.344Z,35.10
2022-10-14T13:16:10.794Z,36.20
2022-10-14T13:18:44.226Z,33.63
2022-10-14T13:21:41.514Z,39.10
2022-10-14T13:24:18.040Z,35.80
2022-10-14T13:26:51.633Z,35.67
2022-10-14T13:29:40.341Z,36.85
2022-10-14T13:32:38.713Z,36.22
2022-10-14T13:35:22.064Z,32.30
2022-10-14T13:38:13.177Z,38.73
2022-10-14T13:40:44.797Z,37.15
2022-10-14T13:43:19.181Z,35.38
2022-10-14T13:45:55.488Z,35.95
2022-10-14T13:48:29.599Z,34.13
2022-10-14T13:51:24.687Z,42.50
2022-10-14T13:54:17.791Z,41.17
2022-10-14T13:57:13.801Z,37.42
2022-10-14T14:00:11.620Z,35.67
2022-10-14T14:02:40.870Z,37.80
2022-10-14T14:05:14.205Z,36.20
2022-10-14T14:08:21.707Z,39.10
2022-10-14T14:10:29.217Z,35.75
2022-10-14T14:12:56.871Z,37.17
2022-10-14T14:15:26.725Z,39.08
2022-10-14T14:17:54.624Z,34.57
2022-10-14T14:20:24.022Z,35.83
2022-10-14T14:22:53.943Z,37.72
2022-10-14T14:25:34.024Z,39.08
2022-10-14T14:28:02.998Z,36.78
2022-10-14T14:30:30.396Z,37.70
2022-10-14T14:32:59.763Z,43.42
2022-10-14T14:35:27.602Z,38.47
2022-10-14T14:37:56.440Z,37.58
2022-10-14T14:40:28.835Z,40.70
2022-10-14T14:43:02.028Z,39.47
2022-10-14T14:45:31.199Z,41.83
2022-10-14T14:48:01.718Z,38.50
2022-10-14T14:50:48.880Z,39.92
2022-10-14T14:53:24.057Z,32.83
2022-10-14T14:55:54.495Z,39.57
2022-10-14T14:58:26.680Z,36.35
2022-10-14T15:00:55.188Z,45.95
2022-10-14T15:03:24.529Z,39.78
2022-10-14T15:06:02.039Z,40.35
2022-10-14T15:08:36.329Z,41.80
2022-10-14T15:11:03.924Z,41.92
2022-10-14T15:13:40.436Z,39.45
2022-10-14T15:16:07.991Z,36.58
2022-10-14T15:18:37.736Z,38.88
2022-10-14T15:21:11.740Z,42.40
2022-10-14T15:23:53.402Z,41.90
2022-10-14T15:26:34.824Z,41.20
2022-10-14T15:29:08.351Z,42.22
2022-10-14T15:31:35.999Z,45.60
2022-10-14T15:34:03.356Z,47.67
2022-10-14T15:36:34.479Z,45.58
2022-10-14T15:39:02.662Z,47.20
2022-10-14T15:41:30.124Z,49.28
2022-10-14T15:43:57.445Z,44.20
2022-10-14T15:46:43.393Z,49.43
2022-10-14T15:49:15.445Z,46.50
2022-10-14T15:51:42.745Z,48.53
2022-10-14T15:54:11.403Z,52.28
2022-10-14T15:56:39.534Z,49.92
2022-10-14T15:59:06.811Z,48.13
2022-10-14T16:01:35.806Z,50.20
2022-10-14T16:04:03.960Z,51.00
2022-10-14T16:06:32.697Z,50.00
2022-10-14T16:09:00.124Z,51.58
2022-10-14T16:11:29.545Z,54.97
2022-10-14T16:13:57.177Z,53.00
2022-10-14T16:16:33.052Z,52.15
2022-10-14T16:19:03.590Z,59.85
2022-10-14T16:21:31.183Z,56.35
2022-10-14T16:24:01.246Z,56.83
2022-10-14T16:26:29.641Z,61.58
2022-10-14T16:28:57.278Z,65.05
2022-10-14T16:31:24.719Z,61.30
2022-10-14T16:33:57.016Z,76.70
2022-10-14T16:36:26.211Z,73.30
2022-10-14T16:38:56.879Z,56.92
2022-10-14T16:41:27.529Z,75.13
2022-10-14T16:43:54.919Z,76.55
2022-10-14T16:46:42.132Z,76.32
2022-10-14T16:49:09.444Z,70.87
2022-10-14T16:51:36.808Z,67.28
2022-10-14T16:54:04.282Z,68.35
2022-10-14T16:56:50.104Z,65.00
2022-10-14T16:59:17.458Z,70.10
2022-10-14T17:01:45.018Z,63.93
2022-10-14T17:04:12.720Z,70.85
2022-10-14T17:06:40.310Z,65.20
2022-10-14T17:09:09.105Z,66.07
2022-10-14T17:11:36.403Z,65.43
2022-10-14T17:14:03.966Z,62.80
2022-10-14T17:16:31.379Z,70.50
2022-10-14T17:18:59.162Z,78.45
2022-10-14T17:21:29.611Z,82.50
2022-10-14T17:24:03.680Z,81.80
2022-10-14T17:26:31.832Z,81.13
2022-10-14T17:28:59.175Z,80.68
2022-10-14T17:31:26.789Z,77.63
2022-10-14T17:33:54.097Z,76.32
2022-10-14T17:36:23.057Z,89.93
2022-10-14T17:38:51.085Z,80.40
2022-10-14T17:41:18.838Z,82.88
2022-10-14T17:43:50.101Z,77.32
2022-10-14T17:46:20.846Z,76.20
2022-10-14T17:48:52.993Z,89.40
2022-10-14T17:51:23.024Z,80.83
2022-10-14T17:53:57.080Z,79.40
2022-10-14T17:56:24.581Z,83.45
2022-10-14T17:58:55.786Z,83.88
2022-10-14T18:01:36.908Z,83.95
2022-10-14T18:04:05.123Z,79.47
2022-10-14T18:06:33.666Z,79.65
2022-10-14T18:09:02.279Z,89.20
2022-10-14T18:11:49.707Z,86.53
2022-10-14T18:14:18.397Z,85.80
2022-10-14T18:16:47.493Z,90.10
2022-10-14T18:19:16.788Z,83.70
2022-10-14T18:21:44.534Z,82.65
2022-10-14T18:24:12.236Z,81.10
2022-10-14T18:26:40.830Z,87.45
2022-10-14T18:29:08.705Z,91.67
2022-10-14T18:31:36.088Z,95.82
2022-10-14T18:34:03.818Z,85.47
2022-10-14T18:36:33.154Z,88.53
2022-10-14T18:39:02.159Z,85.65
2022-10-14T18:41:29.911Z,84.87
2022-10-14T18:44:00.090Z,82.90
2022-10-14T18:46:29.668Z,78.25
2022-10-14T18:48:57.877Z,78.15
2022-10-14T18:51:29.882Z,83.90
2022-10-14T18:53:59.193Z,76.03
2022-10-14T18:56:31.788Z,82.72
2022-10-14T18:59:01.407Z,78.43
2022-10-14T19:01:29.244Z,81.90
2022-10-14T19:03:56.931Z,83.80
2022-10-14T19:06:24.563Z,70.83
2022-10-14T19:08:52.175Z,74.50
2022-10-14T19:11:21.261Z,70.88
2022-10-14T19:13:50.215Z,76.82
2022-10-14T19:16:19.249Z,67.22
2022-10-14T19:18:46.731Z,67.77
2022-10-14T19:21:15.214Z,69.32
2022-10-14T19:23:43.496Z,74.30
2022-10-14T19:28:50.042Z,77.63
2022-10-14T19:31:19.548Z,67.63
2022-10-14T19:33:46.953Z,73.93
2022-10-14T19:36:15.857Z,74.65
2022-10-14T19:38:52.304Z,72.78
2022-10-14T19:41:19.565Z,69.05
2022-10-14T19:43:46.872Z,71.17
2022-10-14T19:46:14.448Z,65.82
2022-10-14T19:48:41.684Z,62.33
2022-10-14T19:51:11.865Z,69.45
2022-10-14T19:53:39.311Z,67.75
2022-10-14T19:56:08.555Z,72.53
2022-10-14T19:58:38.558Z,65.35
2022-10-14T20:01:08.452Z,61.08
2022-10-14T20:03:35.853Z,69.85
2022-10-14T20:06:03.576Z,65.18
2022-10-14T20:08:31.017Z,69.07
2022-10-14T20:11:01.995Z,70.47
2022-10-14T20:13:29.404Z,66.78
2022-10-14T20:15:58.348Z,75.80
2022-10-14T20:18:25.707Z,71.47
2022-10-14T20:20:53.043Z,69.10
2022-10-14T20:23:20.396Z,70.40
2022-10-14T20:25:47.890Z,70.72
2022-10-14T20:28:19.606Z,71.35
2022-10-14T20:30:47.376Z,68.38
2022-10-14T20:33:14.636Z,70.43
2022-10-14T20:35:41.992Z,67.68
2022-10-14T20:38:09.233Z,68.53
2022-10-14T20:40:36.601Z,65.65
2022-10-14T20:43:04.036Z,61.05
2022-10-14T20:45:31.855Z,75.70
2022-10-14T20:47:59.084Z,59.70
2022-10-14T20:50:26.429Z,57.05
2022-10-14T20:52:53.639Z,60.92
2022-10-14T20:55:20.934Z,65.35
2022-10-14T20:57:48.326Z,61.63
2022-10-14T21:00:15.611Z,57.88
2022-10-14T21:05:11.076Z,65.75
2022-10-14T21:07:38.281Z,66.93
2022-10-14T21:10:06.914Z,68.07
2022-10-14T21:12:34.284Z,64.13
2022-10-14T21:15:01.591Z,70.18
2022-10-14T21:17:29.989Z,62.35
2022-10-14T21:19:57.318Z,62.47
2022-10-14T21:22:25.174Z,67.03
2022-10-14T21:24:52.636Z,61.67
2022-10-14T21:27:19.932Z,60.83
2022-10-14T21:29:49.442Z,63.50
2022-10-14T21:32:16.714Z,57.67
2022-10-14T21:34:44.164Z,59.63
2022-10-14T21:37:12.221Z,62.97
2022-10-14T21:39:39.500Z,67.05
2022-10-14T21:42:06.810Z,60.80
2022-10-14T21:44:34.132Z,58.50
2022-10-14T21:47:01.426Z,60.60
2022-10-14T21:49:28.679Z,57.47
2022-10-14T21:51:55.915Z,63.70
2022-10-14T21:54:24.854Z,61.53
2022-10-14T21:56:52.188Z,56.60
2022-10-14T21:59:19.519Z,56.53
2022-10-14T22:01:46.987Z,58.55
2022-10-14T22:04:14.268Z,57.25
2022-10-14T22:06:41.490Z,53.65
2022-10-14T22:09:08.877Z,54.50
2022-10-14T22:11:37.905Z,53.77
2022-10-14T22:14:06.338Z,56.97
2022-10-14T22:16:33.737Z,56.95
2022-10-14T22:19:01.663Z,58.58
2022-10-14T22:21:30.040Z,58.50
2022-10-14T22:23:58.503Z,60.33
2022-10-14T22:26:26.544Z,54.40
2022-10-14T22:29:20.736Z,57.03
2022-10-14T22:31:48.003Z,62.22
2022-10-14T22:34:16.509Z,61.88
2022-10-14T22:36:44.009Z,59.20
2022-10-14T22:39:13.437Z,56.63
2022-10-14T22:41:40.711Z,58.55
2022-10-14T22:44:09.285Z,58.83
2022-10-14T22:46:37.184Z,55.92
2022-10-14T22:49:04.636Z,61.03
2022-10-14T22:51:36.792Z,58.65
2022-10-14T22:54:04.245Z,62.08
2022-10-14T22:56:31.641Z,63.40
2022-10-14T22:59:01.311Z,66.90
2022-10-14T23:01:28.919Z,61.97
2022-10-14T23:03:57.098Z,61.75
2022-10-14T23:06:24.384Z,61.75
2022-10-14T23:08:51.689Z,57.13
2022-10-14T23:11:20.245Z,57.35
2022-10-14T23:13:47.663Z,55.50
2022-10-14T23:16:16.449Z,57.33
2022-10-14T23:18:43.854Z,55.63
2022-10-14T23:21:15.226Z,56.58
2022-10-14T23:23:42.849Z,57.67
2022-10-14T23:26:11.118Z,52.50
2022-10-14T23:28:38.554Z,53.67
2022-10-14T23:31:12.950Z,56.70
2022-10-14T23:33:40.351Z,60.25
2022-10-14T23:36:08.932Z,58.33
2022-10-14T23:38:36.493Z,60.30
2022-10-14T23:41:04.017Z,60.28
2022-10-14T23:43:31.505Z,64.22
2022-10-14T23:45:58.743Z,57.00
2022-10-14T23:48:26.215Z,54.60
2022-10-14T23:50:53.538Z,56.33
2022-10-14T23:53:20.906Z,55.50
2022-10-14T23:55:48.168Z,52.88
2022-10-14T23:58:15.399Z,51.83
